Aviation Digital Data Service (ADDS)

Output produced by METARs form (0905 UTC 26 January 2020)
found at http://www.aviationweather.gov/metar/data/
 
METAR text: KBUR 260853Z 16004KT 2SM BR OVC003 12/11 A3011 RMK AO2 SLP188 T01170106 55002
Conditions at: KBUR (BURBANK , CA, US) observed 0853 UTC 26 January 2020
Temperature: 11.7°C (53°F)
Dewpoint: 10.6°C (51°F) [RH = 93%]
Pressure (altimeter): 30.11 inches Hg (1019.7 mb)
[Sea-level pressure: 1018.8 mb]
Winds: from the SSE (160 degrees) at 5 MPH (4 knots; 2.1 m/s)
Visibility: 2.00 miles (3.22 km)
Ceiling: 300 feet AGL
Clouds: overcast cloud deck at 300 feet AGL
Weather: BR  (mist)

METAR text: KBUR 260753Z 13005KT 2SM BR OVC004 12/11 A3011 RMK AO2 SLP188 T01170106 402280078
Conditions at: KBUR (BURBANK , CA, US) observed 0753 UTC 26 January 2020
Temperature: 11.7°C (53°F)
Dewpoint: 10.6°C (51°F) [RH = 93%]
Pressure (altimeter): 30.11 inches Hg (1019.7 mb)
[Sea-level pressure: 1018.8 mb]
Winds: from the SE (130 degrees) at 6 MPH (5 knots; 2.6 m/s)
Visibility: 2.00 miles (3.22 km)
Ceiling: 400 feet AGL
Clouds: overcast cloud deck at 400 feet AGL
Weather: BR  (mist)

METAR text: KBUR 260717Z 13006KT 2 1/2SM BR OVC004 12/11 A3012 RMK AO2 T01220106
Conditions at: KBUR (BURBANK , CA, US) observed 0717 UTC 26 January 2020
Temperature: 12.2°C (54°F)
Dewpoint: 10.6°C (51°F) [RH = 90%]
Pressure (altimeter): 30.12 inches Hg (1020.1 mb)
Winds: from the SE (130 degrees) at 7 MPH (6 knots; 3.1 m/s)
Visibility: 2.50 miles (4.02 km)
Ceiling: 400 feet AGL
Clouds: overcast cloud deck at 400 feet AGL
Weather: BR  (mist)

METAR text: KBUR 260653Z 14005KT 3SM BR BKN005 12/11 A3012 RMK AO2 SLP190 T01220106
Conditions at: KBUR (BURBANK , CA, US) observed 0653 UTC 26 January 2020
Temperature: 12.2°C (54°F)
Dewpoint: 10.6°C (51°F) [RH = 90%]
Pressure (altimeter): 30.12 inches Hg (1020.1 mb)
[Sea-level pressure: 1019.0 mb]
Winds: from the SE (140 degrees) at 6 MPH (5 knots; 2.6 m/s)
Visibility: 3 miles ( 5 km)
Ceiling: 500 feet AGL
Clouds: broken clouds at 500 feet AGL
Weather: BR  (mist)

METAR text: KBUR 260648Z 13005KT 3SM BR BKN005 12/11 A3012 RMK AO2
Conditions at: KBUR (BURBANK , CA, US) observed 0648 UTC 26 January 2020
Temperature: 12.0°C (54°F)
Dewpoint: 11.0°C (52°F) [RH = 94%]
Pressure (altimeter): 30.12 inches Hg (1020.1 mb)
Winds: from the SE (130 degrees) at 6 MPH (5 knots; 2.6 m/s)
Visibility: 3 miles ( 5 km)
Ceiling: 500 feet AGL
Clouds: broken clouds at 500 feet AGL
Weather: BR  (mist)

METAR text: KBUR 260639Z 11005KT 3SM BR SCT005 12/11 A3012 RMK AO2 T01220106
Conditions at: KBUR (BURBANK , CA, US) observed 0639 UTC 26 January 2020
Temperature: 12.2°C (54°F)
Dewpoint: 10.6°C (51°F) [RH = 90%]
Pressure (altimeter): 30.12 inches Hg (1020.1 mb)
Winds: from the ESE (110 degrees) at 6 MPH (5 knots; 2.6 m/s)
Visibility: 3 miles ( 5 km)
Ceiling: at least 12,000 feet AGL
Clouds: scattered clouds at 500 feet AGL
Weather: BR  (mist)

METAR text: KBUR 260553Z 11006KT 4SM BR CLR 13/11 A3011 RMK AO2 SLP187 T01280106 10211 20128 53017
Conditions at: KBUR (BURBANK , CA, US) observed 0553 UTC 26 January 2020
Temperature: 12.8°C (55°F)
Dewpoint: 10.6°C (51°F) [RH = 86%]
Pressure (altimeter): 30.11 inches Hg (1019.7 mb)
[Sea-level pressure: 1018.7 mb]
Winds: from the ESE (110 degrees) at 7 MPH (6 knots; 3.1 m/s)
Visibility: 4 miles ( 6 km)
Ceiling: at least 12,000 feet AGL
Clouds: sky clear below 12,000 feet AGL
Weather: BR  (mist)

METAR text: KBUR 260453Z 12005KT 4SM HZ CLR 13/10 A3008 RMK AO2 SLP179 T01330100
Conditions at: KBUR (BURBANK , CA, US) observed 0453 UTC 26 January 2020
Temperature: 13.3°C (56°F)
Dewpoint: 10.0°C (50°F) [RH = 80%]
Pressure (altimeter): 30.08 inches Hg (1018.7 mb)
[Sea-level pressure: 1017.9 mb]
Winds: from the ESE (120 degrees) at 6 MPH (5 knots; 2.6 m/s)
Visibility: 4 miles ( 6 km)
Ceiling: at least 12,000 feet AGL
Clouds: sky clear below 12,000 feet AGL
Weather: HZ  (haze)

METAR text: KBUR 260353Z 12006KT 6SM HZ CLR 14/10 A3007 RMK AO2 SLP175 T01440100
Conditions at: KBUR (BURBANK , CA, US) observed 0353 UTC 26 January 2020
Temperature: 14.4°C (58°F)
Dewpoint: 10.0°C (50°F) [RH = 75%]
Pressure (altimeter): 30.07 inches Hg (1018.4 mb)
[Sea-level pressure: 1017.5 mb]
Winds: from the ESE (120 degrees) at 7 MPH (6 knots; 3.1 m/s)
Visibility: 6 miles (10 km)
Ceiling: at least 12,000 feet AGL
Clouds: sky clear below 12,000 feet AGL
Weather: HZ  (haze)

METAR text: KBUR 260253Z 14005KT 6SM HZ CLR 16/10 A3006 RMK AO2 SLP171 T01560100 53016
Conditions at: KBUR (BURBANK , CA, US) observed 0253 UTC 26 January 2020
Temperature: 15.6°C (60°F)
Dewpoint: 10.0°C (50°F) [RH = 69%]
Pressure (altimeter): 30.06 inches Hg (1018.0 mb)
[Sea-level pressure: 1017.1 mb]
Winds: from the SE (140 degrees) at 6 MPH (5 knots; 2.6 m/s)
Visibility: 6 miles (10 km)
Ceiling: at least 12,000 feet AGL
Clouds: sky clear below 12,000 feet AGL
Weather: HZ  (haze)

METAR text: KBUR 260153Z 12005KT 7SM CLR 17/09 A3003 RMK AO2 SLP163 T01720094
Conditions at: KBUR (BURBANK , CA, US) observed 0153 UTC 26 January 2020
Temperature: 17.2°C (63°F)
Dewpoint: 9.4°C (49°F) [RH = 60%]
Pressure (altimeter): 30.03 inches Hg (1017.0 mb)
[Sea-level pressure: 1016.3 mb]
Winds: from the ESE (120 degrees) at 6 MPH (5 knots; 2.6 m/s)
Visibility: 7 miles (11 km)
Ceiling: at least 12,000 feet AGL
Clouds: sky clear below 12,000 feet AGL
Weather: no significant weather observed at this time

METAR text: KBUR 260053Z 19004KT 6SM HZ CLR 18/09 A3001 RMK AO2 SLP156 T01830094
Conditions at: KBUR (BURBANK , CA, US) observed 0053 UTC 26 January 2020
Temperature: 18.3°C (65°F)
Dewpoint: 9.4°C (49°F) [RH = 56%]
Pressure (altimeter): 30.01 inches Hg (1016.3 mb)
[Sea-level pressure: 1015.6 mb]
Winds: from the S (190 degrees) at 5 MPH (4 knots; 2.1 m/s)
Visibility: 6 miles (10 km)
Ceiling: at least 12,000 feet AGL
Clouds: sky clear below 12,000 feet AGL
Weather: HZ  (haze)

METAR text: KBUR 252353Z 17005KT 7SM CLR 21/09 A3001 RMK AO2 SLP153 T02110094 10228 20161 55003
Conditions at: KBUR (BURBANK , CA, US) observed 2353 UTC 25 January 2020
Temperature: 21.1°C (70°F)
Dewpoint: 9.4°C (49°F) [RH = 47%]
Pressure (altimeter): 30.01 inches Hg (1016.3 mb)
[Sea-level pressure: 1015.3 mb]
Winds: from the S (170 degrees) at 6 MPH (5 knots; 2.6 m/s)
Visibility: 7 miles (11 km)
Ceiling: at least 12,000 feet AGL
Clouds: sky clear below 12,000 feet AGL
Weather: no significant weather observed at this time

METAR text: KBUR 252253Z 15006KT 8SM CLR 22/08 A3000 RMK AO2 SLP150 T02170078
Conditions at: KBUR (BURBANK , CA, US) observed 2253 UTC 25 January 2020
Temperature: 21.7°C (71°F)
Dewpoint: 7.8°C (46°F) [RH = 41%]
Pressure (altimeter): 30.00 inches Hg (1016.0 mb)
[Sea-level pressure: 1015.0 mb]
Winds: from the SSE (150 degrees) at 7 MPH (6 knots; 3.1 m/s)
Visibility: 8 miles (13 km)
Ceiling: at least 12,000 feet AGL
Clouds: sky clear below 12,000 feet AGL
Weather: no significant weather observed at this time

METAR text: KBUR 252153Z 15006KT 10SM CLR 22/06 A3000 RMK AO2 SLP150 T02220061
Conditions at: KBUR (BURBANK , CA, US) observed 2153 UTC 25 January 2020
Temperature: 22.2°C (72°F)
Dewpoint: 6.1°C (43°F) [RH = 35%]
Pressure (altimeter): 30.00 inches Hg (1016.0 mb)
[Sea-level pressure: 1015.0 mb]
Winds: from the SSE (150 degrees) at 7 MPH (6 knots; 3.1 m/s)
Visibility: 10 or more miles (16+ km)
Ceiling: at least 12,000 feet AGL
Clouds: sky clear below 12,000 feet AGL
Weather: no significant weather observed at this time

METAR text: KBUR 252053Z 15006KT 10SM CLR 21/07 A3002 RMK AO2 SLP156 T02110067 58014
Conditions at: KBUR (BURBANK , CA, US) observed 2053 UTC 25 January 2020
Temperature: 21.1°C (70°F)
Dewpoint: 6.7°C (44°F) [RH = 39%]
Pressure (altimeter): 30.02 inches Hg (1016.7 mb)
[Sea-level pressure: 1015.6 mb]
Winds: from the SSE (150 degrees) at 7 MPH (6 knots; 3.1 m/s)
Visibility: 10 or more miles (16+ km)
Ceiling: at least 12,000 feet AGL
Clouds: sky clear below 12,000 feet AGL
Weather: no significant weather observed at this time

METAR text: KBUR 251953Z 09004KT 10SM CLR 20/04 A3004 RMK AO2 SLP163 T02000044
Conditions at: KBUR (BURBANK , CA, US) observed 1953 UTC 25 January 2020
Temperature: 20.0°C (68°F)
Dewpoint: 4.4°C (40°F) [RH = 36%]
Pressure (altimeter): 30.04 inches Hg (1017.4 mb)
[Sea-level pressure: 1016.3 mb]
Winds: from the E (90 degrees) at 5 MPH (4 knots; 2.1 m/s)
Visibility: 10 or more miles (16+ km)
Ceiling: at least 12,000 feet AGL
Clouds: sky clear below 12,000 feet AGL
Weather: no significant weather observed at this time

METAR text: KBUR 251853Z 16005KT 10SM CLR 18/04 A3006 RMK AO2 SLP169 T01830044
Conditions at: KBUR (BURBANK , CA, US) observed 1853 UTC 25 January 2020
Temperature: 18.3°C (65°F)
Dewpoint: 4.4°C (40°F) [RH = 40%]
Pressure (altimeter): 30.06 inches Hg (1018.0 mb)
[Sea-level pressure: 1016.9 mb]
Winds: from the SSE (160 degrees) at 6 MPH (5 knots; 2.6 m/s)
Visibility: 10 or more miles (16+ km)
Ceiling: at least 12,000 feet AGL
Clouds: sky clear below 12,000 feet AGL
Weather: no significant weather observed at this time

METAR text: KBUR 251753Z 00000KT 10SM CLR 16/03 A3006 RMK AO2 SLP171 T01610033 10161 20078 51015
Conditions at: KBUR (BURBANK , CA, US) observed 1753 UTC 25 January 2020
Temperature: 16.1°C (61°F)
Dewpoint: 3.3°C (38°F) [RH = 42%]
Pressure (altimeter): 30.06 inches Hg (1018.0 mb)
[Sea-level pressure: 1017.1 mb]
Winds: calm
Visibility: 10 or more miles (16+ km)
Ceiling: at least 12,000 feet AGL
Clouds: sky clear below 12,000 feet AGL
Weather: no significant weather observed at this time

METAR text: KBUR 251653Z 22003KT 10SM CLR 14/01 A3006 RMK AO2 SLP170 T01390011
Conditions at: KBUR (BURBANK , CA, US) observed 1653 UTC 25 January 2020
Temperature: 13.9°C (57°F)
Dewpoint: 1.1°C (34°F) [RH = 42%]
Pressure (altimeter): 30.06 inches Hg (1018.0 mb)
[Sea-level pressure: 1017.0 mb]
Winds: from the SW (220 degrees) at 3 MPH (3 knots; 1.5 m/s)
Visibility: 10 or more miles (16+ km)
Ceiling: at least 12,000 feet AGL
Clouds: sky clear below 12,000 feet AGL
Weather: no significant weather observed at this time

METAR text: KBUR 251553Z VRB03KT 10SM CLR 10/02 A3004 RMK AO2 SLP164 T01000017
Conditions at: KBUR (BURBANK , CA, US) observed 1553 UTC 25 January 2020
Temperature: 10.0°C (50°F)
Dewpoint: 1.7°C (35°F) [RH = 56%]
Pressure (altimeter): 30.04 inches Hg (1017.4 mb)
[Sea-level pressure: 1016.4 mb]
Winds: variable direction winds at 3 MPH (3 knots; 1.5 m/s)
Visibility: 10 or more miles (16+ km)
Ceiling: at least 12,000 feet AGL
Clouds: sky clear below 12,000 feet AGL
Weather: no significant weather observed at this time

METAR text: KBUR 251453Z 35005KT 10SM CLR 08/00 A3001 RMK AO2 SLP157 T00780000 53003
Conditions at: KBUR (BURBANK , CA, US) observed 1453 UTC 25 January 2020
Temperature: 7.8°C (46°F)
Dewpoint: 0.0°C (32°F) [RH = 58%]
Pressure (altimeter): 30.01 inches Hg (1016.3 mb)
[Sea-level pressure: 1015.7 mb]
Winds: from the N (350 degrees) at 6 MPH (5 knots; 2.6 m/s)
Visibility: 10 or more miles (16+ km)
Ceiling: at least 12,000 feet AGL
Clouds: sky clear below 12,000 feet AGL
Weather: no significant weather observed at this time

METAR text: KBUR 251353Z 00000KT 10SM CLR 08/01 A3001 RMK AO2 SLP155 T00830011
Conditions at: KBUR (BURBANK , CA, US) observed 1353 UTC 25 January 2020
Temperature: 8.3°C (47°F)
Dewpoint: 1.1°C (34°F) [RH = 60%]
Pressure (altimeter): 30.01 inches Hg (1016.3 mb)
[Sea-level pressure: 1015.5 mb]
Winds: calm
Visibility: 10 or more miles (16+ km)
Ceiling: at least 12,000 feet AGL
Clouds: sky clear below 12,000 feet AGL
Weather: no significant weather observed at this time

METAR text: KBUR 251253Z 00000KT 10SM CLR 08/02 A3000 RMK AO2 SLP151 T00830017
Conditions at: KBUR (BURBANK , CA, US) observed 1253 UTC 25 January 2020
Temperature: 8.3°C (47°F)
Dewpoint: 1.7°C (35°F) [RH = 63%]
Pressure (altimeter): 30.00 inches Hg (1016.0 mb)
[Sea-level pressure: 1015.1 mb]
Winds: calm
Visibility: 10 or more miles (16+ km)
Ceiling: at least 12,000 feet AGL
Clouds: sky clear below 12,000 feet AGL
Weather: no significant weather observed at this time

METAR text: KBUR 251153Z 00000KT 10SM CLR 09/01 A3000 RMK AO2 SLP152 T00940011 10133 20089 52003
Conditions at: KBUR (BURBANK , CA, US) observed 1153 UTC 25 January 2020
Temperature: 9.4°C (49°F)
Dewpoint: 1.1°C (34°F) [RH = 56%]
Pressure (altimeter): 30.00 inches Hg (1016.0 mb)
[Sea-level pressure: 1015.2 mb]
Winds: calm
Visibility: 10 or more miles (16+ km)
Ceiling: at least 12,000 feet AGL
Clouds: sky clear below 12,000 feet AGL
Weather: no significant weather observed at this time

METAR text: KBUR 251053Z 04005KT 10SM CLR 11/04 A3000 RMK AO2 SLP150 T01060039
Conditions at: KBUR (BURBANK , CA, US) observed 1053 UTC 25 January 2020
Temperature: 10.6°C (51°F)
Dewpoint: 3.9°C (39°F) [RH = 63%]
Pressure (altimeter): 30.00 inches Hg (1016.0 mb)
[Sea-level pressure: 1015.0 mb]
Winds: from the NE (40 degrees) at 6 MPH (5 knots; 2.6 m/s)
Visibility: 10 or more miles (16+ km)
Ceiling: at least 12,000 feet AGL
Clouds: sky clear below 12,000 feet AGL
Weather: no significant weather observed at this time

METAR text: KBUR 250953Z 36005KT 10SM CLR 10/07 A3000 RMK AO2 SLP149 T01000067
Conditions at: KBUR (BURBANK , CA, US) observed 0953 UTC 25 January 2020
Temperature: 10.0°C (50°F)
Dewpoint: 6.7°C (44°F) [RH = 80%]
Pressure (altimeter): 30.00 inches Hg (1016.0 mb)
[Sea-level pressure: 1014.9 mb]
Winds: from the N (360 degrees) at 6 MPH (5 knots; 2.6 m/s)
Visibility: 10 or more miles (16+ km)
Ceiling: at least 12,000 feet AGL
Clouds: sky clear below 12,000 feet AGL
Weather: no significant weather observed at this time

METAR text: KBUR 250853Z 00000KT 10SM CLR 12/08 A2999 RMK AO2 SLP147 T01220078 58008
Conditions at: KBUR (BURBANK , CA, US) observed 0853 UTC 25 January 2020
Temperature: 12.2°C (54°F)
Dewpoint: 7.8°C (46°F) [RH = 74%]
Pressure (altimeter): 29.99 inches Hg (1015.7 mb)
[Sea-level pressure: 1014.7 mb]
Winds: calm
Visibility: 10 or more miles (16+ km)
Ceiling: at least 12,000 feet AGL
Clouds: sky clear below 12,000 feet AGL
Weather: no significant weather observed at this time

METAR text: KBUR 250753Z VRB04KT 10SM CLR 11/07 A3001 RMK AO2 SLP153 T01110072 402330089
Conditions at: KBUR (BURBANK , CA, US) observed 0753 UTC 25 January 2020
Temperature: 11.1°C (52°F)
Dewpoint: 7.2°C (45°F) [RH = 77%]
Pressure (altimeter): 30.01 inches Hg (1016.3 mb)
[Sea-level pressure: 1015.3 mb]
Winds: variable direction winds at 5 MPH (4 knots; 2.1 m/s)
Visibility: 10 or more miles (16+ km)
Ceiling: at least 12,000 feet AGL
Clouds: sky clear below 12,000 feet AGL
Weather: no significant weather observed at this time

METAR text: KBUR 250653Z 00000KT 10SM CLR 13/04 A3001 RMK AO2 SLP153 T01280044
Conditions at: KBUR (BURBANK , CA, US) observed 0653 UTC 25 January 2020
Temperature: 12.8°C (55°F)
Dewpoint: 4.4°C (40°F) [RH = 57%]
Pressure (altimeter): 30.01 inches Hg (1016.3 mb)
[Sea-level pressure: 1015.3 mb]
Winds: calm
Visibility: 10 or more miles (16+ km)
Ceiling: at least 12,000 feet AGL
Clouds: sky clear below 12,000 feet AGL
Weather: no significant weather observed at this time

METAR text: KBUR 250553Z 03003KT 10SM CLR 13/09 A3002 RMK AO2 SLP156 T01330089 10217 20133 53017
Conditions at: KBUR (BURBANK , CA, US) observed 0553 UTC 25 January 2020
Temperature: 13.3°C (56°F)
Dewpoint: 8.9°C (48°F) [RH = 75%]
Pressure (altimeter): 30.02 inches Hg (1016.7 mb)
[Sea-level pressure: 1015.6 mb]
Winds: from the NNE (30 degrees) at 3 MPH (3 knots; 1.5 m/s)
Visibility: 10 or more miles (16+ km)
Ceiling: at least 12,000 feet AGL
Clouds: sky clear below 12,000 feet AGL
Weather: no significant weather observed at this time

METAR text: KBUR 250453Z 08004KT 10SM CLR 14/10 A3000 RMK AO2 SLP151 T01440100
Conditions at: KBUR (BURBANK , CA, US) observed 0453 UTC 25 January 2020
Temperature: 14.4°C (58°F)
Dewpoint: 10.0°C (50°F) [RH = 75%]
Pressure (altimeter): 30.00 inches Hg (1016.0 mb)
[Sea-level pressure: 1015.1 mb]
Winds: from the E (80 degrees) at 5 MPH (4 knots; 2.1 m/s)
Visibility: 10 or more miles (16+ km)
Ceiling: at least 12,000 feet AGL
Clouds: sky clear below 12,000 feet AGL
Weather: no significant weather observed at this time

METAR text: KBUR 250353Z VRB06KT 10SM CLR 16/08 A2998 RMK AO2 SLP145 T01560083
Conditions at: KBUR (BURBANK , CA, US) observed 0353 UTC 25 January 2020
Temperature: 15.6°C (60°F)
Dewpoint: 8.3°C (47°F) [RH = 62%]
Pressure (altimeter): 29.98 inches Hg (1015.3 mb)
[Sea-level pressure: 1014.5 mb]
Winds: variable direction winds at 7 MPH (6 knots; 3.1 m/s)
Visibility: 10 or more miles (16+ km)
Ceiling: at least 12,000 feet AGL
Clouds: sky clear below 12,000 feet AGL
Weather: no significant weather observed at this time

METAR text: KBUR 250253Z 07005KT 10SM CLR 19/03 A2997 RMK AO2 SLP139 T01890028 53012
Conditions at: KBUR (BURBANK , CA, US) observed 0253 UTC 25 January 2020
Temperature: 18.9°C (66°F)
Dewpoint: 2.8°C (37°F) [RH = 34%]
Pressure (altimeter): 29.97 inches Hg (1015.0 mb)
[Sea-level pressure: 1013.9 mb]
Winds: from the ENE (70 degrees) at 6 MPH (5 knots; 2.6 m/s)
Visibility: 10 or more miles (16+ km)
Ceiling: at least 12,000 feet AGL
Clouds: sky clear below 12,000 feet AGL
Weather: no significant weather observed at this time

METAR text: KBUR 250153Z 09007KT 10SM CLR 18/07 A2995 RMK AO2 SLP132 T01830067
Conditions at: KBUR (BURBANK , CA, US) observed 0153 UTC 25 January 2020
Temperature: 18.3°C (65°F)
Dewpoint: 6.7°C (44°F) [RH = 47%]
Pressure (altimeter): 29.95 inches Hg (1014.3 mb)
[Sea-level pressure: 1013.2 mb]
Winds: from the E (90 degrees) at 8 MPH (7 knots; 3.6 m/s)
Visibility: 10 or more miles (16+ km)
Ceiling: at least 12,000 feet AGL
Clouds: sky clear below 12,000 feet AGL
Weather: no significant weather observed at this time

METAR text: KBUR 250053Z VRB05KT 10SM CLR 21/06 A2994 RMK AO2 SLP128 T02060056
Conditions at: KBUR (BURBANK , CA, US) observed 0053 UTC 25 January 2020
Temperature: 20.6°C (69°F)
Dewpoint: 5.6°C (42°F) [RH = 37%]
Pressure (altimeter): 29.94 inches Hg (1014.0 mb)
[Sea-level pressure: 1012.8 mb]
Winds: variable direction winds at 6 MPH (5 knots; 2.6 m/s)
Visibility: 10 or more miles (16+ km)
Ceiling: at least 12,000 feet AGL
Clouds: sky clear below 12,000 feet AGL
Weather: no significant weather observed at this time

METAR text: KBUR 242353Z 19003KT 10SM CLR 22/06 A2993 RMK AO2 SLP126 T02170056 10233 20172 56012
Conditions at: KBUR (BURBANK , CA, US) observed 2353 UTC 24 January 2020
Temperature: 21.7°C (71°F)
Dewpoint: 5.6°C (42°F) [RH = 35%]
Pressure (altimeter): 29.93 inches Hg (1013.6 mb)
[Sea-level pressure: 1012.6 mb]
Winds: from the S (190 degrees) at 3 MPH (3 knots; 1.5 m/s)
Visibility: 10 or more miles (16+ km)
Ceiling: at least 12,000 feet AGL
Clouds: sky clear below 12,000 feet AGL
Weather: no significant weather observed at this time

METAR text: KBUR 242253Z 18007KT 10SM CLR 22/06 A2993 RMK AO2 SLP126 T02220056
Conditions at: KBUR (BURBANK , CA, US) observed 2253 UTC 24 January 2020
Temperature: 22.2°C (72°F)
Dewpoint: 5.6°C (42°F) [RH = 34%]
Pressure (altimeter): 29.93 inches Hg (1013.6 mb)
[Sea-level pressure: 1012.6 mb]
Winds: from the S (180 degrees) at 8 MPH (7 knots; 3.6 m/s)
Visibility: 10 or more miles (16+ km)
Ceiling: at least 12,000 feet AGL
Clouds: sky clear below 12,000 feet AGL
Weather: no significant weather observed at this time

METAR text: KBUR 242153Z 17006KT 10SM CLR 23/04 A2994 RMK AO2 SLP129 T02280044
Conditions at: KBUR (BURBANK , CA, US) observed 2153 UTC 24 January 2020
Temperature: 22.8°C (73°F)
Dewpoint: 4.4°C (40°F) [RH = 30%]
Pressure (altimeter): 29.94 inches Hg (1014.0 mb)
[Sea-level pressure: 1012.9 mb]
Winds: from the S (170 degrees) at 7 MPH (6 knots; 3.1 m/s)
Visibility: 10 or more miles (16+ km)
Ceiling: at least 12,000 feet AGL
Clouds: sky clear below 12,000 feet AGL
Weather: no significant weather observed at this time

Forecast for: KBUR (BURBANK , CA, US)
Text: KBUR 260740Z 2608/2706 13005KT 2SM BR OVC004
Forecast period: 0800 to 1700 UTC 26 January 2020
Forecast type: FROM: standard forecast or significant change
Winds: from the SE (130 degrees) at 6 MPH (5 knots; 2.6 m/s)
Visibility: 2.00 miles (3.22 km)
Ceiling: 400 feet AGL
Clouds: overcast cloud deck at 400 feet AGL
Weather: BR  (mist)
Text: FM261700 VRB03KT 5SM HZ BKN012
Forecast period: 1700 to 1900 UTC 26 January 2020
Forecast type: FROM: standard forecast or significant change
Winds: variable direction winds at 3 MPH (3 knots; 1.5 m/s)
Visibility: 5 miles (8 km)
Ceiling: 1200 feet AGL
Clouds: broken clouds at 1200 feet AGL
Weather: HZ  (haze)
Text: FM261900 17009KT P6SM SCT020
Forecast period: 1900 UTC 26 January 2020 to 0300 UTC 27 January 2020
Forecast type: FROM: standard forecast or significant change
Winds: from the S (170 degrees) at 10 MPH (9 knots; 4.6 m/s)
Visibility: 6 or more miles 10+ km)
Ceiling: at least 12,000 feet AGL
Clouds: scattered clouds at 2000 feet AGL
Weather: no significant weather forecast for this period
Text: FM270300 VRB03KT P6SM SKC
Forecast period: 0300 to 0600 UTC 27 January 2020
Forecast type: FROM: standard forecast or significant change
Winds: variable direction winds at 3 MPH (3 knots; 1.5 m/s)
Visibility: 6 or more miles 10+ km)
Clouds: clear skies
Weather: no significant weather forecast for this period